createdAt,value
2023-05-25T00:02:15.411Z,17.10
2023-05-25T00:04:43.929Z,17.13
2023-05-25T00:07:12.165Z,16.77
2023-05-25T00:09:40.534Z,17.38
2023-05-25T00:12:09.323Z,16.95
2023-05-25T00:14:38.959Z,18.75
2023-05-25T00:17:10.111Z,18.35
2023-05-25T00:19:42.600Z,17.17
2023-05-25T00:22:11.219Z,18.38
2023-05-25T00:24:41.165Z,18.40
2023-05-25T00:27:09.561Z,18.23
2023-05-25T00:29:39.674Z,19.13
2023-05-25T00:32:09.651Z,19.13
2023-05-25T00:34:38.531Z,18.63
2023-05-25T00:37:07.487Z,19.65
2023-05-25T00:39:35.855Z,18.83
2023-05-25T00:42:04.571Z,20.02
2023-05-25T00:44:32.968Z,19.63
2023-05-25T00:47:03.214Z,19.90
2023-05-25T00:49:35.135Z,20.48
2023-05-25T00:52:04.493Z,20.17
2023-05-25T00:54:33.680Z,20.25
2023-05-25T00:57:05.290Z,21.17
2023-05-25T00:59:40.748Z,20.38
2023-05-25T01:02:13.877Z,20.58
2023-05-25T01:04:45.615Z,20.60
2023-05-25T01:07:18.960Z,20.95
2023-05-25T01:09:48.565Z,20.33
2023-05-25T01:12:17.362Z,20.08
2023-05-25T01:14:48.290Z,20.10
2023-05-25T01:17:20.549Z,20.05
2023-05-25T01:20:01.549Z,20.77
2023-05-25T01:22:42.889Z,20.73
2023-05-25T01:25:22.046Z,21.33
2023-05-25T01:27:55.649Z,20.15
2023-05-25T01:30:27.586Z,24.02
2023-05-25T01:32:56.635Z,22.88
2023-05-25T01:35:26.471Z,23.25
2023-05-25T01:37:56.141Z,22.67
2023-05-25T01:40:24.349Z,23.45
2023-05-25T01:42:52.617Z,22.52
2023-05-25T01:45:21.152Z,24.23
2023-05-25T01:47:56.932Z,25.48
2023-05-25T01:50:32.036Z,23.33
2023-05-25T01:53:08.693Z,23.90
2023-05-25T01:55:40.418Z,24.75
2023-05-25T01:58:10.724Z,25.15
2023-05-25T02:00:41.723Z,24.40
2023-05-25T02:03:10.932Z,23.85
2023-05-25T02:05:42.664Z,25.73
2023-05-25T02:08:12.623Z,25.55
2023-05-25T02:10:40.958Z,24.52
2023-05-25T02:13:09.363Z,25.60
2023-05-25T02:15:37.573Z,25.05
2023-05-25T02:18:06.164Z,25.05
2023-05-25T02:20:34.454Z,24.60
2023-05-25T02:23:03.390Z,25.40
2023-05-25T02:25:33.045Z,25.20
2023-05-25T02:28:01.355Z,24.00
2023-05-25T02:30:29.699Z,24.13
2023-05-25T02:33:02.488Z,26.40
2023-05-25T02:35:31.037Z,25.77
2023-05-25T02:38:00.191Z,24.77
2023-05-25T02:40:28.438Z,25.85
2023-05-25T02:42:58.082Z,26.67
2023-05-25T02:45:26.456Z,26.83
2023-05-25T02:47:54.737Z,25.20
2023-05-25T02:50:24.738Z,25.63
2023-05-25T02:52:56.795Z,27.58
2023-05-25T02:55:26.226Z,26.58
2023-05-25T02:57:55.105Z,25.92
2023-05-25T03:00:44.814Z,24.85
2023-05-25T03:03:13.273Z,26.13
2023-05-25T03:05:41.707Z,25.70
2023-05-25T03:08:10.004Z,25.05
2023-05-25T03:10:38.539Z,26.20
2023-05-25T03:13:07.612Z,26.20
2023-05-25T03:15:35.879Z,25.63
2023-05-25T03:18:07.763Z,25.92
2023-05-25T03:20:41.571Z,26.63
2023-05-25T03:23:10.045Z,24.92
2023-05-25T03:25:39.664Z,26.33
2023-05-25T03:28:07.899Z,25.30
2023-05-25T03:30:36.255Z,24.63
2023-05-25T03:33:04.864Z,26.52
2023-05-25T03:35:42.879Z,25.90
2023-05-25T03:38:11.420Z,26.08
2023-05-25T03:40:39.642Z,26.30
2023-05-25T03:43:08.072Z,26.02
2023-05-25T03:45:36.419Z,26.30
2023-05-25T03:48:04.906Z,27.63
2023-05-25T03:50:34.317Z,25.63
2023-05-25T03:53:03.949Z,26.13
2023-05-25T03:55:32.556Z,27.00
2023-05-25T03:58:00.762Z,25.95
2023-05-25T04:00:29.020Z,26.90
2023-05-25T04:02:58.916Z,26.05
2023-05-25T04:05:27.746Z,26.60
2023-05-25T04:07:58.188Z,26.88
2023-05-25T04:10:27.747Z,25.92
2023-05-25T04:12:57.461Z,25.20
2023-05-25T04:15:26.775Z,25.92
2023-05-25T04:18:09.216Z,26.20
2023-05-25T04:20:37.887Z,26.05
2023-05-25T04:23:07.401Z,26.33
2023-05-25T04:25:37.873Z,25.42
2023-05-25T04:28:08.555Z,25.15
2023-05-25T04:30:57.259Z,25.58
2023-05-25T04:33:45.042Z,25.65
2023-05-25T04:36:22.591Z,26.20
2023-05-25T04:38:52.326Z,26.23
2023-05-25T04:41:22.218Z,24.00
2023-05-25T04:44:07.946Z,27.27
2023-05-25T04:46:40.898Z,25.80
2023-05-25T04:49:14.738Z,27.27
2023-05-25T04:51:42.970Z,25.15
2023-05-25T04:54:11.587Z,25.00
2023-05-25T04:56:42.405Z,25.40
2023-05-25T04:59:11.187Z,25.27
2023-05-25T05:01:41.228Z,24.08
2023-05-25T05:04:12.875Z,25.33
2023-05-25T05:06:41.629Z,24.33
2023-05-25T05:09:17.654Z,25.73
2023-05-25T05:11:47.875Z,23.85
2023-05-25T05:14:17.067Z,26.33
2023-05-25T05:16:48.195Z,27.50
2023-05-25T05:19:16.880Z,29.48
2023-05-25T05:21:45.821Z,26.05
2023-05-25T05:24:14.907Z,27.52
2023-05-25T05:26:56.129Z,26.55
2023-05-25T05:29:31.355Z,25.83
2023-05-25T05:31:59.637Z,24.67
2023-05-25T05:34:28.093Z,23.92
2023-05-25T05:36:58.821Z,22.95
2023-05-25T05:39:29.062Z,23.55
2023-05-25T05:41:57.488Z,26.02
2023-05-25T05:44:29.071Z,26.23
2023-05-25T05:47:01.861Z,26.63
2023-05-25T05:49:32.341Z,26.33
2023-05-25T05:52:02.716Z,24.38
2023-05-25T05:54:31.139Z,26.05
2023-05-25T05:57:03.539Z,24.00
2023-05-25T05:59:32.209Z,24.95
2023-05-25T06:02:01.886Z,25.63
2023-05-25T06:04:30.346Z,23.67
2023-05-25T06:07:00.167Z,24.00
2023-05-25T06:09:28.547Z,23.30
2023-05-25T06:12:01.594Z,24.05
2023-05-25T06:14:30.405Z,27.50
2023-05-25T06:17:03.849Z,24.88
2023-05-25T06:19:32.380Z,25.42
2023-05-25T06:22:00.714Z,25.40
2023-05-25T06:24:28.958Z,24.35
2023-05-25T06:26:57.177Z,24.92
2023-05-25T06:29:25.433Z,23.60
2023-05-25T06:31:53.739Z,24.60
2023-05-25T06:34:23.813Z,23.95
2023-05-25T06:36:52.080Z,23.55
2023-05-25T06:39:20.363Z,22.38
2023-05-25T06:41:49.065Z,23.55
2023-05-25T06:44:27.507Z,23.02
2023-05-25T06:46:55.752Z,23.83
2023-05-25T06:49:25.390Z,24.00
2023-05-25T06:51:53.687Z,22.95
2023-05-25T06:54:22.014Z,22.70
2023-05-25T06:56:50.249Z,21.67
2023-05-25T06:59:19.185Z,22.80
2023-05-25T07:01:47.973Z,21.80
2023-05-25T07:04:16.314Z,23.88
2023-05-25T07:06:46.229Z,21.02
2023-05-25T07:09:14.869Z,21.25
2023-05-25T07:11:43.155Z,22.58
2023-05-25T07:14:11.621Z,22.10
2023-05-25T07:16:45.237Z,22.63
2023-05-25T07:19:13.626Z,22.23
2023-05-25T07:21:42.090Z,22.63
2023-05-25T07:24:11.698Z,22.55
2023-05-25T07:26:40.598Z,22.98
2023-05-25T07:29:08.794Z,23.80
2023-05-25T07:31:37.506Z,24.92
2023-05-25T07:34:05.762Z,25.75
2023-05-25T07:36:33.998Z,23.08
2023-05-25T07:39:02.464Z,24.85
2023-05-25T07:41:32.361Z,25.67
2023-05-25T07:44:00.643Z,24.88
2023-05-25T07:46:28.936Z,24.42
2023-05-25T07:48:58.437Z,25.05
2023-05-25T07:51:27.238Z,26.10
2023-05-25T07:53:56.625Z,24.20
2023-05-25T07:56:25.030Z,24.90
2023-05-25T07:58:54.640Z,24.52
2023-05-25T08:01:26.753Z,22.00
2023-05-25T08:03:55.526Z,23.45
2023-05-25T08:06:24.370Z,23.95
2023-05-25T08:08:52.792Z,24.08
2023-05-25T08:11:26.501Z,24.98
2023-05-25T08:13:56.134Z,24.23
2023-05-25T08:16:24.463Z,22.70
2023-05-25T08:18:52.936Z,23.50
2023-05-25T08:21:21.610Z,22.88
2023-05-25T08:23:50.819Z,20.17
2023-05-25T08:26:37.753Z,21.05
2023-05-25T08:29:08.762Z,23.88
2023-05-25T08:31:37.460Z,21.70
2023-05-25T08:34:05.932Z,19.23
2023-05-25T08:36:36.118Z,20.38
2023-05-25T08:39:04.990Z,19.10
2023-05-25T08:41:36.038Z,20.27
2023-05-25T08:44:08.089Z,21.83
2023-05-25T08:46:37.756Z,20.98
2023-05-25T08:49:12.782Z,21.02
2023-05-25T08:51:47.951Z,19.92
2023-05-25T08:54:23.756Z,20.25
2023-05-25T08:56:58.167Z,19.85
2023-05-25T08:59:33.010Z,18.88
2023-05-25T09:02:16.222Z,17.95
2023-05-25T09:04:45.237Z,19.23
2023-05-25T09:07:13.680Z,17.80
2023-05-25T09:09:42.495Z,17.35
2023-05-25T09:12:11.491Z,17.20
2023-05-25T09:14:45.641Z,16.70
2023-05-25T09:17:16.049Z,17.83
2023-05-25T09:19:44.359Z,17.10
2023-05-25T09:22:16.321Z,16.13
2023-05-25T09:24:46.171Z,16.42
2023-05-25T09:27:23.370Z,17.52
2023-05-25T09:30:00.228Z,17.30
2023-05-25T09:32:30.485Z,16.02
2023-05-25T09:35:09.776Z,15.80
2023-05-25T09:37:38.529Z,16.02
2023-05-25T09:40:09.083Z,16.10
2023-05-25T09:42:38.995Z,15.57
2023-05-25T09:45:08.434Z,15.73
2023-05-25T09:47:39.184Z,16.33
2023-05-25T09:50:08.890Z,16.02
2023-05-25T09:52:37.706Z,15.52
2023-05-25T09:55:10.447Z,15.02
2023-05-25T09:57:38.843Z,14.75
2023-05-25T10:00:08.917Z,14.75
2023-05-25T10:02:42.211Z,13.43
2023-05-25T10:05:10.928Z,14.75
2023-05-25T10:07:41.891Z,14.82
2023-05-25T10:10:15.394Z,14.88
2023-05-25T10:12:45.524Z,14.20
2023-05-25T10:15:14.884Z,14.45
2023-05-25T10:17:49.225Z,13.15
2023-05-25T10:20:20.481Z,15.20
2023-05-25T10:22:55.906Z,13.35
2023-05-25T10:25:32.332Z,14.90
2023-05-25T10:28:05.172Z,14.35
2023-05-25T10:30:37.067Z,14.95
2023-05-25T10:33:10.000Z,13.80
2023-05-25T10:35:56.175Z,14.15
2023-05-25T10:38:34.718Z,13.57
2023-05-25T10:41:11.066Z,15.25
2023-05-25T10:43:40.969Z,14.07
2023-05-25T10:46:09.725Z,14.50
2023-05-25T10:48:46.653Z,15.10
2023-05-25T10:51:15.454Z,15.32
2023-05-25T10:53:46.260Z,13.38
2023-05-25T10:56:15.407Z,13.68
2023-05-25T10:58:44.779Z,13.88
2023-05-25T11:01:14.852Z,12.95
2023-05-25T11:03:56.744Z,13.15
2023-05-25T11:06:40.965Z,14.10
2023-05-25T11:09:25.167Z,12.80
2023-05-25T11:12:03.812Z,14.20
2023-05-25T11:14:37.781Z,14.00
2023-05-25T11:17:08.015Z,14.20
2023-05-25T11:19:50.751Z,13.52
2023-05-25T11:22:21.554Z,14.48
2023-05-25T11:24:50.686Z,12.90
2023-05-25T11:27:24.769Z,12.93
2023-05-25T11:29:54.096Z,13.10
2023-05-25T11:32:23.036Z,12.95
2023-05-25T11:34:54.157Z,13.73
2023-05-25T11:37:24.932Z,12.48
2023-05-25T11:39:53.867Z,11.38
2023-05-25T11:42:23.248Z,12.60
2023-05-25T11:44:52.100Z,12.93
2023-05-25T11:47:25.040Z,12.95
2023-05-25T11:49:57.354Z,14.38
2023-05-25T11:52:25.690Z,13.40
2023-05-25T11:54:55.858Z,12.88
2023-05-25T11:57:25.778Z,13.00
2023-05-25T11:59:55.711Z,13.85
2023-05-25T12:02:25.184Z,13.35
2023-05-25T12:05:00.216Z,13.32
2023-05-25T12:07:29.736Z,12.80
2023-05-25T12:10:07.581Z,13.93
2023-05-25T12:12:41.607Z,13.23
2023-05-25T12:15:11.967Z,14.80
2023-05-25T12:17:43.132Z,14.50
2023-05-25T12:20:15.273Z,13.75
2023-05-25T12:22:44.808Z,13.63
2023-05-25T12:25:16.094Z,14.32
2023-05-25T12:27:44.923Z,14.75
2023-05-25T12:30:13.429Z,13.88
2023-05-25T12:32:55.837Z,13.10
2023-05-25T12:35:25.482Z,14.98
2023-05-25T12:38:11.461Z,14.35
2023-05-25T12:40:39.791Z,13.15
2023-05-25T12:43:08.132Z,13.73
2023-05-25T12:45:41.536Z,13.55
2023-05-25T12:48:10.269Z,12.82
2023-05-25T12:50:41.081Z,11.80
2023-05-25T12:53:09.666Z,11.88
2023-05-25T12:55:38.610Z,12.15
2023-05-25T12:58:08.178Z,12.93
2023-05-25T13:00:37.950Z,13.63
2023-05-25T13:03:08.434Z,12.75
2023-05-25T13:05:38.378Z,11.85
2023-05-25T13:08:08.669Z,12.05
2023-05-25T13:10:39.206Z,11.20
2023-05-25T13:13:07.991Z,12.05
2023-05-25T13:15:36.373Z,12.02
2023-05-25T13:18:05.606Z,12.43
2023-05-25T13:20:33.930Z,12.25
2023-05-25T13:23:03.242Z,11.95
2023-05-25T13:25:33.013Z,11.13
2023-05-25T13:28:01.384Z,11.02
2023-05-25T13:30:29.841Z,10.70
2023-05-25T13:32:58.199Z,10.85
2023-05-25T13:35:38.130Z,9.40
2023-05-25T13:38:06.861Z,10.15
2023-05-25T13:40:36.533Z,10.13
2023-05-25T13:43:04.762Z,9.68
2023-05-25T13:45:33.026Z,9.73
2023-05-25T13:48:01.423Z,10.70
2023-05-25T13:50:29.773Z,9.40
2023-05-25T13:52:58.086Z,10.07
2023-05-25T13:55:26.396Z,9.80
2023-05-25T13:57:56.044Z,9.07
2023-05-25T14:00:24.597Z,10.13
2023-05-25T14:02:52.893Z,9.20
2023-05-25T14:05:21.798Z,10.00
2023-05-25T14:07:50.320Z,9.52
2023-05-25T14:10:18.750Z,9.85
2023-05-25T14:12:47.102Z,10.27
2023-05-25T14:15:16.708Z,8.60
2023-05-25T14:17:44.982Z,8.45
2023-05-25T14:20:18.442Z,8.98
2023-05-25T14:22:46.825Z,8.45
2023-05-25T14:25:15.168Z,8.05
2023-05-25T14:27:43.454Z,8.82
2023-05-25T14:30:12.442Z,8.90
2023-05-25T14:32:42.077Z,8.93
2023-05-25T14:35:10.987Z,8.32
2023-05-25T14:37:39.293Z,9.25
2023-05-25T14:40:08.646Z,8.00
2023-05-25T14:42:36.961Z,8.05
2023-05-25T14:45:06.387Z,8.00
2023-05-25T14:47:35.574Z,8.00
2023-05-25T14:50:05.409Z,9.10
2023-05-25T14:52:33.640Z,8.20
2023-05-25T14:55:01.906Z,8.18
2023-05-25T14:57:30.113Z,8.18
2023-05-25T14:59:58.489Z,7.93
2023-05-25T15:02:26.879Z,8.35
2023-05-25T15:04:55.183Z,8.43
2023-05-25T15:07:24.859Z,7.95
2023-05-25T15:09:53.141Z,7.38
2023-05-25T15:12:21.437Z,8.20
2023-05-25T15:14:49.811Z,7.50
2023-05-25T15:17:18.105Z,8.07
2023-05-25T15:19:46.403Z,7.10
2023-05-25T15:22:14.667Z,7.85
2023-05-25T15:24:44.279Z,8.30
2023-05-25T15:27:12.542Z,7.57
2023-05-25T15:29:40.877Z,7.72
2023-05-25T15:32:13.253Z,8.80
2023-05-25T15:34:42.085Z,7.97
2023-05-25T15:37:11.280Z,8.60
2023-05-25T15:39:41.269Z,7.60
2023-05-25T15:42:10.997Z,7.82
2023-05-25T15:44:39.299Z,7.20
2023-05-25T15:47:07.841Z,7.40
2023-05-25T15:49:37.185Z,7.95
2023-05-25T15:52:06.726Z,8.02
2023-05-25T15:54:34.998Z,7.70
2023-05-25T15:57:03.256Z,8.88
2023-05-25T15:59:32.936Z,8.15
2023-05-25T16:02:01.281Z,7.80
2023-05-25T16:04:29.524Z,7.57
2023-05-25T16:06:59.429Z,8.38
2023-05-25T16:09:28.403Z,7.50
2023-05-25T16:11:56.633Z,8.02
2023-05-25T16:14:24.921Z,7.18
2023-05-25T16:16:54.606Z,7.00
2023-05-25T16:19:23.036Z,7.57
2023-05-25T16:21:51.462Z,7.00
2023-05-25T16:24:19.844Z,7.15
2023-05-25T16:26:48.129Z,7.22
2023-05-25T16:29:16.355Z,7.22
2023-05-25T16:31:44.646Z,6.78
2023-05-25T16:34:14.361Z,6.95
2023-05-25T16:36:42.672Z,7.10
2023-05-25T16:39:11.813Z,7.25
2023-05-25T16:41:41.174Z,7.50
2023-05-25T16:44:10.988Z,7.32
2023-05-25T16:46:39.542Z,7.13
2023-05-25T16:49:08.062Z,6.82
2023-05-25T16:51:38.346Z,7.50
2023-05-25T16:54:07.046Z,6.78
2023-05-25T16:56:35.717Z,7.22
2023-05-25T16:59:04.089Z,7.20
2023-05-25T17:01:32.508Z,7.72
2023-05-25T17:04:01.093Z,7.65
2023-05-25T17:06:29.804Z,7.03
2023-05-25T17:08:59.629Z,7.47
2023-05-25T17:11:28.270Z,7.53
2023-05-25T17:13:57.524Z,7.65
2023-05-25T17:16:25.917Z,7.15
2023-05-25T17:18:54.306Z,7.68
2023-05-25T17:21:22.998Z,7.50
2023-05-25T17:23:51.360Z,6.85
2023-05-25T17:26:21.140Z,7.35
2023-05-25T17:28:49.793Z,7.82
2023-05-25T17:31:18.148Z,7.90
2023-05-25T17:33:46.584Z,7.50
2023-05-25T17:36:14.853Z,7.38
2023-05-25T17:38:43.733Z,7.05
2023-05-25T17:41:12.079Z,7.93
2023-05-25T17:43:41.807Z,7.75
2023-05-25T17:46:10.284Z,7.38
2023-05-25T17:48:39.440Z,7.38
2023-05-25T17:51:07.686Z,7.30
2023-05-25T17:53:36.432Z,7.88
2023-05-25T17:56:05.166Z,7.53
2023-05-25T17:58:33.499Z,7.38
2023-05-25T18:01:03.358Z,7.25
2023-05-25T18:03:32.187Z,7.07
2023-05-25T18:06:00.764Z,7.20
2023-05-25T18:08:29.277Z,8.27
2023-05-25T18:10:57.725Z,7.68
2023-05-25T18:13:26.179Z,7.80
2023-05-25T18:15:54.677Z,7.80
2023-05-25T18:18:24.975Z,8.25
2023-05-25T18:20:53.350Z,7.75
2023-05-25T18:23:22.449Z,7.55
2023-05-25T18:25:50.998Z,7.40
2023-05-25T18:28:19.407Z,8.23
2023-05-25T18:30:48.059Z,7.78
2023-05-25T18:33:19.438Z,7.68
2023-05-25T18:35:49.476Z,8.00
2023-05-25T18:38:17.765Z,7.68
2023-05-25T18:40:46.068Z,8.00
2023-05-25T18:43:14.362Z,8.43
2023-05-25T18:45:42.864Z,8.02
2023-05-25T18:48:11.309Z,7.90
2023-05-25T18:50:42.015Z,8.68
2023-05-25T18:53:11.779Z,7.97
2023-05-25T18:55:40.155Z,8.30
2023-05-25T18:58:08.489Z,8.70
2023-05-25T19:00:36.752Z,8.02
2023-05-25T19:03:06.140Z,8.75
2023-05-25T19:05:34.617Z,8.30
2023-05-25T19:08:02.996Z,8.77
2023-05-25T19:10:32.667Z,8.77
2023-05-25T19:13:00.865Z,8.40
2023-05-25T19:15:29.141Z,8.98
2023-05-25T19:17:57.462Z,8.77
2023-05-25T19:20:28.697Z,9.02
2023-05-25T19:22:57.132Z,9.18
2023-05-25T19:25:25.337Z,10.02
2023-05-25T19:27:55.135Z,8.65
2023-05-25T19:30:23.482Z,9.27
2023-05-25T19:32:51.800Z,8.68
2023-05-25T19:35:20.166Z,9.20
2023-05-25T19:37:48.494Z,8.90
2023-05-25T19:40:16.856Z,9.70
2023-05-25T19:42:45.421Z,9.63
2023-05-25T19:45:15.348Z,9.93
2023-05-25T19:47:43.585Z,9.55
2023-05-25T19:50:12.324Z,9.73
2023-05-25T19:52:40.958Z,9.82
2023-05-25T19:55:09.536Z,9.95
2023-05-25T19:57:38.542Z,9.52
2023-05-25T20:00:11.629Z,9.20
2023-05-25T20:02:47.154Z,10.13
2023-05-25T20:05:15.509Z,10.13
2023-05-25T20:07:44.360Z,10.50
2023-05-25T20:10:12.949Z,9.90
2023-05-25T20:12:41.705Z,10.85
2023-05-25T20:15:10.953Z,10.07
2023-05-25T20:17:39.580Z,10.00
2023-05-25T20:20:10.025Z,10.02
2023-05-25T20:22:38.307Z,11.43
2023-05-25T20:25:07.208Z,11.57
2023-05-25T20:27:35.654Z,11.07
2023-05-25T20:30:04.171Z,11.85
2023-05-25T20:32:32.749Z,11.02
2023-05-25T20:35:07.919Z,11.43
2023-05-25T20:37:38.912Z,11.55
2023-05-25T20:40:08.210Z,12.05
2023-05-25T20:42:37.050Z,10.85
2023-05-25T20:45:06.092Z,10.60
2023-05-25T20:47:34.374Z,11.45
2023-05-25T20:50:02.720Z,11.80
2023-05-25T20:52:31.018Z,11.85
2023-05-25T20:55:00.683Z,12.13
2023-05-25T20:57:29.761Z,11.70
2023-05-25T21:00:00.007Z,11.48
2023-05-25T21:02:28.868Z,11.77
2023-05-25T21:04:57.397Z,10.90
2023-05-25T21:07:25.774Z,11.48
2023-05-25T21:09:56.640Z,12.15
2023-05-25T21:12:26.438Z,12.02
2023-05-25T21:14:54.768Z,11.18
2023-05-25T21:17:23.107Z,11.18
2023-05-25T21:19:51.450Z,12.30
2023-05-25T21:22:20.040Z,12.15
2023-05-25T21:24:48.363Z,12.35
2023-05-25T21:27:17.791Z,12.30
2023-05-25T21:29:47.475Z,12.10
2023-05-25T21:32:16.536Z,12.45
2023-05-25T21:34:44.765Z,12.10
2023-05-25T21:37:13.083Z,11.98
2023-05-25T21:39:41.311Z,13.18
2023-05-25T21:42:10.166Z,12.60
2023-05-25T21:44:38.449Z,12.73
2023-05-25T21:47:08.257Z,12.55
2023-05-25T21:49:39.426Z,12.93
2023-05-25T21:52:19.795Z,13.13
2023-05-25T21:54:48.004Z,12.25
2023-05-25T21:57:16.290Z,12.52
2023-05-25T21:59:44.523Z,12.50
2023-05-25T22:02:14.221Z,12.43
2023-05-25T22:04:42.585Z,11.30
2023-05-25T22:07:10.827Z,11.63
2023-05-25T22:09:39.098Z,11.95
2023-05-25T22:12:12.885Z,11.57
2023-05-25T22:14:41.520Z,12.02
2023-05-25T22:17:10.087Z,11.93
2023-05-25T22:19:59.090Z,11.80
2023-05-25T22:22:38.018Z,11.68
2023-05-25T22:25:09.141Z,12.05
2023-05-25T22:27:40.115Z,12.15
2023-05-25T22:30:10.899Z,12.75
2023-05-25T22:32:43.932Z,12.15
2023-05-25T22:35:25.718Z,12.15
2023-05-25T22:37:59.164Z,12.35
2023-05-25T22:40:41.921Z,12.57
2023-05-25T22:43:17.262Z,11.52
2023-05-25T22:45:46.452Z,11.48
2023-05-25T22:48:18.887Z,11.80
2023-05-25T22:50:50.543Z,10.88
2023-05-25T22:53:19.059Z,10.43
2023-05-25T22:55:52.202Z,10.98
2023-05-25T22:58:20.796Z,10.98
2023-05-25T23:00:49.314Z,11.40
2023-05-25T23:03:17.857Z,10.38
2023-05-25T23:05:46.804Z,10.43
2023-05-25T23:08:19.788Z,9.77
2023-05-25T23:10:48.368Z,9.52
2023-05-25T23:13:16.841Z,9.35
2023-05-25T23:15:45.730Z,9.40
2023-05-25T23:18:14.386Z,9.27
2023-05-25T23:20:48.592Z,8.23
2023-05-25T23:23:19.755Z,7.72
2023-05-25T23:25:52.535Z,7.90
2023-05-25T23:28:28.413Z,7.45
2023-05-25T23:30:57.868Z,6.57
2023-05-25T23:33:34.868Z,6.30
2023-05-25T23:36:10.563Z,6.47
2023-05-25T23:38:45.267Z,6.22
2023-05-25T23:41:23.748Z,6.05
2023-05-25T23:43:57.839Z,6.28
2023-05-25T23:46:31.738Z,6.13
2023-05-25T23:49:04.085Z,6.70
2023-05-25T23:51:42.970Z,6.00
2023-05-25T23:54:13.754Z,6.10
2023-05-25T23:56:55.347Z,5.50
2023-05-25T23:59:25.136Z,5.60
